createdAt,value
2019-02-02T00:02:00.181Z,3.60
2019-02-02T00:08:04.879Z,3.70
2019-02-02T00:14:09.463Z,3.60
2019-02-02T00:20:14.591Z,3.60
2019-02-02T00:26:18.916Z,3.70
2019-02-02T00:32:23.218Z,3.70
2019-02-02T00:38:27.468Z,3.70
2019-02-02T00:44:31.869Z,3.70
2019-02-02T00:50:36.161Z,3.70
2019-02-02T00:56:40.460Z,3.70
2019-02-02T01:02:44.656Z,3.70
2019-02-02T01:08:49.022Z,3.70
2019-02-02T01:14:53.262Z,3.70
2019-02-02T01:20:57.602Z,3.70
2019-02-02T01:27:01.833Z,3.70
2019-02-02T01:33:06.165Z,3.70
2019-02-02T01:39:10.378Z,3.70
2019-02-02T01:45:20.030Z,3.70
2019-02-02T01:51:24.287Z,3.70
2019-02-02T01:57:28.517Z,3.70
2019-02-02T02:03:32.737Z,3.70
2019-02-02T02:09:37.102Z,3.70
2019-02-02T02:15:41.361Z,3.80
2019-02-02T02:21:45.620Z,3.80
2019-02-02T02:27:50.236Z,3.80
2019-02-02T02:33:54.534Z,3.80
2019-02-02T02:39:58.838Z,3.80
2019-02-02T02:46:03.121Z,3.80
2019-02-02T02:52:07.508Z,3.80
2019-02-02T02:58:11.727Z,3.80
2019-02-02T03:04:15.963Z,3.80
2019-02-02T03:10:21.549Z,3.80
2019-02-02T03:16:25.896Z,3.80
2019-02-02T03:22:30.263Z,3.80
2019-02-02T03:28:34.482Z,3.80
2019-02-02T03:34:38.828Z,3.80
2019-02-02T03:40:43.222Z,3.80
2019-02-02T03:46:47.514Z,3.70
2019-02-02T03:52:51.837Z,3.70
2019-02-02T03:59:06.271Z,3.70
2019-02-02T04:05:02.000Z,3.70
2019-02-02T04:11:06.347Z,3.70
2019-02-02T04:17:10.699Z,3.70
2019-02-02T04:23:15.000Z,3.70
2019-02-02T04:29:19.232Z,3.70
2019-02-02T04:35:23.532Z,3.70
2019-02-02T04:41:27.828Z,3.70
2019-02-02T04:47:32.134Z,3.70
2019-02-02T04:53:36.342Z,3.80
2019-02-02T04:59:40.694Z,3.80
2019-02-02T05:05:44.896Z,3.80
2019-02-02T05:11:49.300Z,3.80
2019-02-02T05:17:53.577Z,3.80
2019-02-02T05:23:57.805Z,3.80
2019-02-02T05:30:02.023Z,3.80
2019-02-02T05:36:06.430Z,3.80
2019-02-02T05:42:10.652Z,3.80
2019-02-02T05:48:14.882Z,3.80
2019-02-02T05:54:19.066Z,3.70
2019-02-02T06:00:49.159Z,3.70
2019-02-02T06:06:53.457Z,3.70
2019-02-02T06:12:57.771Z,3.70
2019-02-02T06:19:02.085Z,3.70
2019-02-02T06:25:07.714Z,3.70
2019-02-02T06:31:12.013Z,3.70
2019-02-02T06:37:16.392Z,3.70
2019-02-02T06:43:20.637Z,3.70
2019-02-02T06:49:25.001Z,3.60
2019-02-02T06:55:29.322Z,3.60
2019-02-02T07:01:33.527Z,3.60
2019-02-02T07:07:37.815Z,3.60
2019-02-02T07:13:42.071Z,3.60
2019-02-02T07:19:46.294Z,3.60
2019-02-02T07:25:50.549Z,3.60
2019-02-02T07:31:54.939Z,3.60
2019-02-02T07:37:59.192Z,3.50
2019-02-02T07:44:03.508Z,3.50
2019-02-02T07:50:09.498Z,3.50
2019-02-02T07:56:13.711Z,3.40
2019-02-02T08:02:17.901Z,3.40
2019-02-02T08:08:22.102Z,3.40
2019-02-02T08:14:26.342Z,3.40
2019-02-02T08:20:30.666Z,3.40
2019-02-02T08:26:34.993Z,3.50
2019-02-02T08:32:39.325Z,3.50
2019-02-02T08:38:43.658Z,3.50
2019-02-02T08:44:47.936Z,3.60
2019-02-02T08:50:52.191Z,3.60
2019-02-02T08:56:56.420Z,3.70
2019-02-02T09:03:01.035Z,3.80
2019-02-02T09:09:08.556Z,3.90
2019-02-02T09:15:13.819Z,3.90
2019-02-02T09:21:18.331Z,4.00
2019-02-02T09:27:22.568Z,4.10
2019-02-02T09:33:26.851Z,4.20
2019-02-02T09:39:31.118Z,4.30
2019-02-02T09:45:35.387Z,4.30
2019-02-02T09:51:39.678Z,4.30
2019-02-02T09:57:43.965Z,4.40
2019-02-02T10:03:48.327Z,4.40
2019-02-02T10:09:52.553Z,4.50
2019-02-02T10:15:56.807Z,4.50
2019-02-02T10:22:01.088Z,4.50
2019-02-02T10:28:05.950Z,4.50
2019-02-02T10:34:12.290Z,4.60
2019-02-02T10:40:16.225Z,4.60
2019-02-02T10:46:20.512Z,4.60
2019-02-02T10:52:24.840Z,4.60
2019-02-02T10:58:29.182Z,4.60
2019-02-02T11:04:33.481Z,4.70
2019-02-02T11:10:37.937Z,4.80
2019-02-02T11:16:42.396Z,4.90
2019-02-02T11:22:46.796Z,4.90
2019-02-02T11:28:51.257Z,4.90
2019-02-02T11:34:55.496Z,4.80
2019-02-02T11:40:59.711Z,4.70
2019-02-02T11:47:04.160Z,4.70
2019-02-02T11:53:08.528Z,4.70
2019-02-02T11:59:12.792Z,4.80
2019-02-02T12:05:17.170Z,4.80
2019-02-02T12:11:21.454Z,4.90
2019-02-02T12:17:25.785Z,5.00
2019-02-02T12:23:30.068Z,5.10
2019-02-02T12:29:34.286Z,5.10
2019-02-02T12:35:38.482Z,5.10
2019-02-02T12:41:42.879Z,5.00
2019-02-02T12:47:47.289Z,5.20
2019-02-02T12:53:51.531Z,5.20
2019-02-02T12:59:55.861Z,5.20
2019-02-02T13:06:00.136Z,5.40
2019-02-02T13:12:04.355Z,5.50
2019-02-02T13:18:08.742Z,5.50
2019-02-02T13:24:13.026Z,5.40
2019-02-02T13:30:22.836Z,5.40
2019-02-02T13:36:27.121Z,5.20
2019-02-02T13:42:31.414Z,5.10
2019-02-02T13:48:35.629Z,5.20
2019-02-02T13:54:39.959Z,5.20
2019-02-02T14:00:44.246Z,5.20
2019-02-02T14:06:48.641Z,5.10
2019-02-02T14:12:52.839Z,5.00
2019-02-02T14:18:57.112Z,4.90
2019-02-02T14:25:01.385Z,5.00
2019-02-02T14:31:05.669Z,5.00
2019-02-02T14:37:09.889Z,5.00
2019-02-02T14:43:14.119Z,5.00
2019-02-02T14:49:18.325Z,4.90
2019-02-02T14:55:27.158Z,4.90
2019-02-02T15:01:31.529Z,4.90
2019-02-02T15:07:35.736Z,5.10
2019-02-02T15:13:39.984Z,4.90
2019-02-02T15:19:44.294Z,5.00
2019-02-02T15:25:48.568Z,5.10
2019-02-02T15:31:52.872Z,4.80
2019-02-02T15:37:57.102Z,4.80
2019-02-02T15:44:01.284Z,4.70
2019-02-02T15:50:07.158Z,4.70
2019-02-02T15:56:11.353Z,4.80
2019-02-02T16:02:15.652Z,4.80
2019-02-02T16:08:19.964Z,4.70
2019-02-02T16:14:24.328Z,4.70
2019-02-02T16:20:31.078Z,4.70
2019-02-02T16:26:35.316Z,4.60
2019-02-02T16:32:39.556Z,4.60
2019-02-02T16:38:43.783Z,4.60
2019-02-02T16:44:47.992Z,4.60
2019-02-02T16:50:52.194Z,4.60
2019-02-02T16:56:56.427Z,4.60
2019-02-02T17:03:00.878Z,4.50
2019-02-02T17:09:08.083Z,4.60
2019-02-02T17:15:12.463Z,4.70
2019-02-02T17:21:16.742Z,4.60
2019-02-02T17:27:21.087Z,4.60
2019-02-02T17:33:26.713Z,4.60
2019-02-02T17:39:31.095Z,4.50
2019-02-02T17:45:35.378Z,4.40
2019-02-02T17:51:39.607Z,4.60
2019-02-02T17:57:43.871Z,4.50
2019-02-02T18:03:48.143Z,4.30
2019-02-02T18:09:52.437Z,4.40
2019-02-02T18:15:56.743Z,4.40
2019-02-02T18:22:01.028Z,4.30
2019-02-02T18:28:05.780Z,4.30
2019-02-02T18:34:10.056Z,4.20
2019-02-02T18:40:15.854Z,4.30
2019-02-02T18:46:20.064Z,4.30
2019-02-02T18:52:24.281Z,4.30
2019-02-02T18:58:28.466Z,4.40
2019-02-02T19:04:32.668Z,4.50
2019-02-02T19:10:39.080Z,4.50
2019-02-02T19:16:43.330Z,4.40
2019-02-02T19:22:47.592Z,4.40
2019-02-02T19:28:51.912Z,4.30
2019-02-02T19:34:56.174Z,4.30
2019-02-02T19:41:00.513Z,4.30
2019-02-02T19:47:15.711Z,4.20
2019-02-02T19:53:12.018Z,4.20
2019-02-02T19:59:16.394Z,4.20
2019-02-02T20:05:28.599Z,4.20
2019-02-02T20:11:27.000Z,4.20
2019-02-02T20:17:31.381Z,4.20
2019-02-02T20:23:38.661Z,4.20
2019-02-02T20:29:41.877Z,4.30
2019-02-02T20:35:48.547Z,4.20
2019-02-02T20:41:52.066Z,4.10
2019-02-02T20:47:56.411Z,4.10
2019-02-02T20:54:00.890Z,4.10
2019-02-02T21:00:06.563Z,4.10
2019-02-02T21:06:10.957Z,4.10
2019-02-02T21:12:15.365Z,4.10
2019-02-02T21:18:19.645Z,4.20
2019-02-02T21:24:23.877Z,4.10
2019-02-02T21:30:30.632Z,4.10
2019-02-02T21:36:34.911Z,4.10
2019-02-02T21:42:39.159Z,4.00
2019-02-02T21:48:43.432Z,3.90
2019-02-02T21:54:47.744Z,3.90
2019-02-02T22:00:51.959Z,3.90
2019-02-02T22:06:56.878Z,3.80
2019-02-02T22:13:01.157Z,3.80
2019-02-02T22:19:05.680Z,3.70
2019-02-02T22:25:13.434Z,3.70
2019-02-02T22:31:18.112Z,3.70
2019-02-02T22:37:22.410Z,3.80
2019-02-02T22:43:26.649Z,3.80
2019-02-02T22:49:31.217Z,3.90
2019-02-02T22:55:35.508Z,3.80
2019-02-02T23:01:45.857Z,3.70
2019-02-02T23:08:37.022Z,3.70
2019-02-02T23:15:22.276Z,3.70
2019-02-02T23:21:27.416Z,3.70
2019-02-02T23:27:31.675Z,3.70
2019-02-02T23:33:35.940Z,3.70
2019-02-02T23:39:40.333Z,3.70
2019-02-02T23:45:44.642Z,3.70
2019-02-02T23:51:48.972Z,3.60
2019-02-02T23:57:53.263Z,3.60
